Race Coverage Navigation

TS # 46 / Grafton, WV  2019

 


TS STATS
TS Distance 46.4 
Total Distance 2719.84 
Miles To Go 322.01 
TS Climbing 2698 
Total Climbing
TS  Elevation
TS  Net Elevation 4304 
Map Filename Open Map 
Directions Filename  
Latitude 39.35 
Longitude -80 
Google Map  TimeStation Map 


TS Arrival Data
Arr Ord  #/Name Arrival DT TS Dst Avg This TS Avg Overall
 1 377 - Christoph Strasser  06/18/2019 23:11 46.4  10.75  15.58 
 2 279 - Marko Baloh  06/20/2019 3:58 46.4  8.95  13.38 
 3 609 - Jakob Olsen  06/20/2019 7:52 46.4  8.7  13.11 
 4 T411 - team alpha - tischlerei groemmer  06/20/2019 15:03 46.4  28.12  22.72 
 5 T800 - Backstedt Racing Project 14  06/20/2019 16:10 46.4  20.17  22.54 
 6 T404 - Gentlemen of speed  06/20/2019 23:19 46.4  18.32  21.23 
 7 617 - SOLO.kiwi (Craig Harper)  06/21/2019 1:47 46.4  6.15  12.06 
 8 367 - Daniela Genovesi  06/21/2019 2:06 46.4  9.1  12.04 
 9 T401 - Data Techniques powered by Networks Centre  06/21/2019 3:23 46.4  21.42  20.57 
 10 T805 - Team Oceanside  06/21/2019 4:37 46.4  14.89  20.44 
 11 T807 - Team ZOE International  06/21/2019 5:02 46.4  18.32  20.38 
 12 329 - Peter Oyler  06/21/2019 5:04 46.4  7.78  11.9 
 13 416 - Leah Goldstein  06/21/2019 5:59 46.4  7.89  11.83 
 14 T407 - Julian Becker   06/21/2019 6:54 46.4  16.98  20.06 
 15 T201 - EAT WELL  06/21/2019 7:29 46.4  16  19.93 
 16 623 - Ultra Paka Racing Team (Daniel Polman)  06/21/2019 7:43 46.4  6.5  11.75 
 17 T802 - Scorchers  06/21/2019 8:23 46.4  17.96  19.87 
 18 T804 - Team FSHD Skyland Trail  06/21/2019 10:30 46.4  20.32  19.57 
 19 T416 - Team Rotary Raams Polio  06/21/2019 10:37 46.4  17.96  19.54 
 20 622 - Thomas Odom-Team Kyle Pease Foundation  06/21/2019 11:04 46.4  8.34  11.58 
 21 615 - Philipp Amhof  06/21/2019 11:21 46.4  13.51  11.57 
 22 T408 - Radeln-fuer-Kinder (Cycling-for-Kids)  06/21/2019 11:57 46.4  19.2  19.34 
 23 611 - Marcelo Soares " MIXIRICA "  06/21/2019 12:36 46.4  12.65  11.51 
 24 T808 - Antonia's Friends 2019  06/21/2019 14:50 46.4  18.32  18.99 
 25 T400 - Cantastic4  06/21/2019 15:01 46.4  16.98  18.91 
 26 603 - Alan Bradley  06/21/2019 17:01 46.4  11.95  11.3 
 27 612 - Markus K. Brandl  06/21/2019 17:17 46.4  9.25  11.29 
 28 T406 - Operation Walk Midwest  06/21/2019 17:40 46.4  17.29  18.58 
 29 T418 - The Opportunists  06/21/2019 19:10 46.4  16.38  18.41 
 30 529 - Isa Pulver  06/21/2019 19:25 46.4  12.48  11.18 
 31 510 - John C. Tarlton  06/21/2019 23:23 46.4  5.97  11.02 
 32 559 - Team Martin RAAM 2019 (Martin Bergmeister)  06/22/2019 0:00 46.4  10.83  10.99 
 33 442 - Joe Barr  06/22/2019 0:10 46.4  6.57  10.98 
 34 T410 - Soap-Aid  06/22/2019 1:49 46.4  14.73  17.61 
 35 411 - Geoff Brunner  06/22/2019 3:40 46.4  4.81  10.83 
 36 T412 - Team Aspect  06/22/2019 5:07 46.4  17.62  17.24 
 37 T414 - Brazil Nuts  06/22/2019 7:04 46.4  11.8  17.03 
 38 610 - Kabir Rachure  06/22/2019 8:50 46.4  9.19  10.6 
 39 T405 - High Rollers  06/22/2019 8:59 46.4  13.32  16.82 
 40 T202 - Integra Medical - BAA Racing  06/22/2019 9:06 46.4  13.26  16.78 
 41 T415 - TEAM FIRE VELO 935  06/22/2019 9:21 46.4  13.85  16.8 
 42 T803 - Team EndoPark  06/22/2019 9:29 46.4  6.52  16.79 
 43 618 - GREGORY ROBINSON  06/22/2019 9:38 46.4  7.57  10.57 
 44 568 - Alexandra Meixner  06/22/2019 10:47 46.4  8.44  10.51 
 45 T204 - Lucan CRC  06/22/2019 12:02 46.4  17.96  16.49 
 46 T204 - Lucan CRC  06/22/2019 12:02 46.4  17.96  16.49 
 47 T413 - TEAM BRASIL - SKIPPER  06/22/2019 12:06 46.4  14.42  16.51 
 48 T206 - Project Linear Acceleration  06/22/2019 13:04 46.4  13.71  16.39 
 49 T200 - AIR RELAX GoPro TEAM BRASIL  06/22/2019 13:22 46.4  19.74  16.35 
 50 T402 - EA/WFP RAAM Team  06/22/2019 13:50 46.4  14.42  16.32 
 51 604 - Chieko Ozawa  06/22/2019 15:20 46.4  8.67  10.33 
 52 T801 - Mind Over Matter  06/22/2019 16:59 46.4  14.35  16.05 
 53 T806 - Team SuperMarrow  06/22/2019 17:59 46.4  15.55  15.96 
 54 T417 - Team4RAAM 2019 powered by TGW Living Logistics  06/22/2019 18:30 46.4  16.19  15.9 
 55 399 - Valerio Zamboni  06/22/2019 18:36 46.4  11.32  10.22 
 56 T403 - EKJ Denmark  06/22/2019 21:44 46.4  12.54  15.58 
 57 424 - Team i RON man Veterans supporting Veterans  06/22/2019 23:30 46.4  10.51  10.04 
 58 161 - Seana Hogan  06/23/2019 7:47 46.4  9.1  9.73 
 59 T207 - Team Life Time  06/23/2019 17:25 46.4  14.81  14 
 60 T210 - Bike Wine Team  06/23/2019 19:55 46.4  12.6  13.82